createdAt,value
2017-05-16T00:00:18.010Z,9.40
2017-05-16T00:02:46.321Z,9.30
2017-05-16T00:05:14.668Z,9.30
2017-05-16T00:07:42.979Z,9.20
2017-05-16T00:10:11.286Z,9.20
2017-05-16T00:12:39.616Z,9.10
2017-05-16T00:15:07.922Z,8.90
2017-05-16T00:17:36.974Z,8.70
2017-05-16T00:20:05.289Z,8.60
2017-05-16T00:22:33.583Z,8.50
2017-05-16T00:25:02.630Z,8.50
2017-05-16T00:27:30.954Z,8.50
2017-05-16T00:29:59.266Z,8.50
2017-05-16T00:32:27.578Z,8.60
2017-05-16T00:34:56.669Z,8.60
2017-05-16T00:37:25.722Z,8.70
2017-05-16T00:39:54.031Z,8.80
2017-05-16T00:42:22.382Z,8.80
2017-05-16T00:44:50.694Z,8.90
2017-05-16T00:47:19.001Z,8.90
2017-05-16T00:49:47.330Z,8.90
2017-05-16T00:52:15.642Z,9.00
2017-05-16T00:54:44.689Z,8.90
2017-05-16T00:57:13.026Z,9.00
2017-05-16T00:59:41.335Z,8.90
2017-05-16T01:02:10.366Z,8.80
2017-05-16T01:04:38.683Z,8.70
2017-05-16T01:07:06.966Z,8.50
2017-05-16T01:09:35.256Z,8.50
2017-05-16T01:12:03.593Z,8.50
2017-05-16T01:14:31.884Z,8.60
2017-05-16T01:17:00.910Z,8.60
2017-05-16T01:19:29.261Z,8.70
2017-05-16T01:21:58.318Z,8.70
2017-05-16T01:24:26.634Z,8.60
2017-05-16T01:26:55.718Z,8.50
2017-05-16T01:29:24.771Z,8.30
2017-05-16T01:31:53.064Z,8.20
2017-05-16T01:34:21.395Z,8.10
2017-05-16T01:36:49.688Z,8.00
2017-05-16T01:39:17.998Z,8.00
2017-05-16T01:41:46.348Z,8.00
2017-05-16T01:44:14.659Z,8.00
2017-05-16T01:46:42.975Z,8.00
2017-05-16T01:49:12.050Z,7.90
2017-05-16T01:51:40.351Z,7.80
2017-05-16T01:54:09.461Z,7.70
2017-05-16T01:56:37.806Z,7.70
2017-05-16T01:59:06.114Z,7.60
2017-05-16T02:01:34.425Z,7.70
2017-05-16T02:04:02.765Z,7.80
2017-05-16T02:06:31.073Z,7.80
2017-05-16T02:08:59.369Z,7.90
2017-05-16T02:11:28.441Z,8.00
2017-05-16T02:13:56.746Z,8.00
2017-05-16T02:16:25.793Z,8.10
2017-05-16T02:18:54.147Z,8.10
2017-05-16T02:21:22.635Z,8.00
2017-05-16T02:23:50.943Z,7.90
2017-05-16T02:26:19.294Z,7.80
2017-05-16T02:28:47.587Z,7.80
2017-05-16T02:31:15.870Z,7.90
2017-05-16T02:33:44.217Z,7.90
2017-05-16T02:36:12.530Z,7.90
2017-05-16T02:38:40.842Z,7.80
2017-05-16T02:41:09.901Z,7.70
2017-05-16T02:43:38.187Z,7.60
2017-05-16T02:46:06.474Z,7.50
2017-05-16T02:48:34.815Z,7.30
2017-05-16T02:51:03.128Z,7.30
2017-05-16T02:53:31.427Z,7.20
2017-05-16T02:56:00.818Z,7.20
2017-05-16T02:58:29.141Z,7.20
2017-05-16T03:00:57.453Z,7.20
2017-05-16T03:03:25.798Z,7.30
2017-05-16T03:05:54.098Z,7.30
2017-05-16T03:08:22.389Z,7.40
2017-05-16T03:10:50.720Z,7.30
2017-05-16T03:13:19.015Z,7.30
2017-05-16T03:15:47.307Z,7.30
2017-05-16T03:18:15.634Z,7.30
2017-05-16T03:20:43.929Z,7.30
2017-05-16T03:23:12.227Z,7.40
2017-05-16T03:25:40.562Z,7.50
2017-05-16T03:28:08.851Z,7.50
2017-05-16T03:30:37.140Z,7.60
2017-05-16T03:33:05.476Z,7.60
2017-05-16T03:35:33.771Z,7.50
2017-05-16T03:38:02.059Z,7.40
2017-05-16T03:40:30.390Z,7.30
2017-05-16T03:42:58.682Z,7.20
2017-05-16T03:45:26.979Z,7.10
2017-05-16T03:47:55.319Z,7.20
2017-05-16T03:50:24.355Z,7.30
2017-05-16T03:52:52.651Z,7.40
2017-05-16T03:55:20.976Z,7.50
2017-05-16T03:57:49.269Z,7.70
2017-05-16T04:00:18.299Z,7.80
2017-05-16T04:02:46.627Z,7.90
2017-05-16T04:05:14.919Z,8.10
2017-05-16T04:07:43.965Z,8.20
2017-05-16T04:10:12.290Z,8.30
2017-05-16T04:12:41.314Z,8.40
2017-05-16T04:15:09.603Z,8.60
2017-05-16T04:17:37.936Z,8.70
2017-05-16T04:20:06.231Z,8.90
2017-05-16T04:22:34.528Z,9.10
2017-05-16T04:25:02.860Z,9.20
2017-05-16T04:27:31.156Z,9.40
2017-05-16T04:29:59.451Z,9.90
2017-05-16T04:32:27.796Z,10.40
2017-05-16T04:34:56.843Z,11.00
2017-05-16T04:37:25.148Z,11.60
2017-05-16T04:39:53.511Z,12.10
2017-05-16T04:42:21.820Z,12.50
2017-05-16T04:44:50.866Z,12.80
2017-05-16T04:47:19.225Z,13.20
2017-05-16T04:49:47.532Z,13.60
2017-05-16T04:52:15.834Z,14.00
2017-05-16T04:54:44.180Z,14.30
2017-05-16T04:57:12.493Z,14.60
2017-05-16T04:59:40.791Z,14.90
2017-05-16T05:02:09.132Z,15.30
2017-05-16T05:04:37.439Z,15.70
2017-05-16T05:07:05.740Z,16.30
2017-05-16T05:09:34.128Z,16.90
2017-05-16T05:12:03.159Z,17.50
2017-05-16T05:14:31.457Z,17.80
2017-05-16T05:16:59.783Z,18.00
2017-05-16T05:19:28.819Z,18.70
2017-05-16T05:21:57.120Z,19.60
2017-05-16T05:24:25.455Z,20.20
2017-05-16T05:26:53.746Z,20.30
2017-05-16T05:29:22.040Z,20.20
2017-05-16T05:31:50.369Z,20.10
2017-05-16T05:34:18.664Z,20.10
2017-05-16T05:36:46.968Z,20.20
2017-05-16T05:39:15.305Z,20.60
2017-05-16T05:41:43.602Z,21.40
2017-05-16T05:44:11.897Z,22.10
2017-05-16T05:46:40.236Z,22.60
2017-05-16T05:49:08.535Z,23.10
2017-05-16T05:51:36.832Z,23.30
2017-05-16T05:54:05.183Z,23.40
2017-05-16T05:56:33.481Z,23.30
2017-05-16T05:59:01.773Z,23.40
2017-05-16T06:01:30.115Z,23.30
2017-05-16T06:03:58.417Z,23.10
2017-05-16T06:06:26.708Z,23.20
2017-05-16T06:08:55.056Z,23.40
2017-05-16T06:11:23.815Z,23.60
2017-05-16T06:13:52.851Z,24.00
2017-05-16T06:16:21.199Z,24.80
2017-05-16T06:18:49.498Z,25.30
2017-05-16T06:21:17.840Z,25.50
2017-05-16T06:23:46.193Z,25.70
2017-05-16T06:26:15.227Z,26.00
2017-05-16T06:28:43.527Z,26.40
2017-05-16T06:31:11.868Z,26.70
2017-05-16T06:33:40.174Z,26.90
2017-05-16T06:36:08.484Z,27.00
2017-05-16T06:38:36.829Z,26.80
2017-05-16T06:41:05.131Z,26.50
2017-05-16T06:43:34.207Z,26.60
2017-05-16T06:46:03.296Z,26.80
2017-05-16T06:48:31.616Z,26.90
2017-05-16T06:50:59.939Z,26.70
2017-05-16T06:53:28.273Z,26.60
2017-05-16T06:55:56.571Z,26.60
2017-05-16T06:58:25.619Z,26.30
2017-05-16T07:00:53.963Z,26.60
2017-05-16T07:03:22.263Z,26.90
2017-05-16T07:05:50.596Z,27.10
2017-05-16T07:08:18.940Z,27.30
2017-05-16T07:10:47.239Z,27.20
2017-05-16T07:13:15.563Z,27.40
2017-05-16T07:15:44.634Z,27.50
2017-05-16T07:18:12.940Z,27.40
2017-05-16T07:20:41.984Z,27.30
2017-05-16T07:23:10.319Z,27.40
2017-05-16T07:25:39.368Z,27.60
2017-05-16T07:28:07.673Z,27.40
2017-05-16T07:30:36.004Z,27.00
2017-05-16T07:33:04.317Z,27.00
2017-05-16T07:35:32.627Z,27.20
2017-05-16T07:38:01.711Z,27.30
2017-05-16T07:40:30.024Z,27.40
2017-05-16T07:42:58.343Z,27.70
2017-05-16T07:45:26.688Z,27.90
2017-05-16T07:47:55.015Z,28.00
2017-05-16T07:50:23.336Z,28.00
2017-05-16T07:52:51.685Z,28.10
2017-05-16T07:55:19.991Z,28.40
2017-05-16T07:57:48.304Z,28.20
2017-05-16T08:00:16.645Z,28.20
2017-05-16T08:02:44.943Z,28.40
2017-05-16T08:05:13.255Z,28.60
2017-05-16T08:07:41.589Z,28.80
2017-05-16T08:10:09.895Z,29.20
2017-05-16T08:12:38.199Z,29.50
2017-05-16T08:15:06.518Z,29.80
2017-05-16T08:17:34.823Z,29.80
2017-05-16T08:20:03.131Z,29.40
2017-05-16T08:22:31.473Z,29.30
2017-05-16T08:24:59.767Z,29.00
2017-05-16T08:27:28.073Z,29.30
2017-05-16T08:29:56.451Z,29.70
2017-05-16T08:32:24.765Z,30.20
2017-05-16T08:34:53.072Z,30.40
2017-05-16T08:37:21.408Z,30.40
2017-05-16T08:39:50.455Z,29.90
2017-05-16T08:42:18.747Z,29.80
2017-05-16T08:44:47.088Z,29.60
2017-05-16T08:47:15.388Z,29.20
2017-05-16T08:49:43.707Z,29.30
2017-05-16T08:52:12.778Z,29.40
2017-05-16T08:54:41.087Z,29.60
2017-05-16T08:57:09.389Z,29.20
2017-05-16T08:59:37.727Z,28.80
2017-05-16T09:02:06.783Z,28.60
2017-05-16T09:04:35.087Z,28.80
2017-05-16T09:07:03.449Z,29.00
2017-05-16T09:09:31.762Z,29.40
2017-05-16T09:12:00.807Z,29.90
2017-05-16T09:14:29.160Z,30.00
2017-05-16T09:16:57.462Z,29.60
2017-05-16T09:19:25.774Z,29.10
2017-05-16T09:21:54.115Z,28.70
2017-05-16T09:24:22.854Z,28.40
2017-05-16T09:26:51.892Z,28.10
2017-05-16T09:29:20.224Z,28.10
2017-05-16T09:31:48.537Z,28.00
2017-05-16T09:34:16.835Z,28.00
2017-05-16T09:36:45.159Z,27.90
2017-05-16T09:39:13.459Z,27.70
2017-05-16T09:41:41.774Z,27.50
2017-05-16T09:44:10.118Z,27.30
2017-05-16T09:46:39.171Z,27.80
2017-05-16T09:49:07.484Z,28.30
2017-05-16T09:51:36.549Z,28.50
2017-05-16T09:54:04.855Z,29.00
2017-05-16T09:56:33.903Z,29.60
2017-05-16T09:59:02.219Z,29.80
2017-05-16T10:01:30.524Z,29.70
2017-05-16T10:03:58.844Z,29.50
2017-05-16T10:06:27.140Z,29.00
2017-05-16T10:08:56.210Z,28.90
2017-05-16T10:11:24.506Z,28.80
2017-05-16T10:13:53.547Z,29.00
2017-05-16T10:16:21.867Z,29.80
2017-05-16T10:18:50.168Z,30.40
2017-05-16T10:21:18.503Z,30.40
2017-05-16T10:23:46.808Z,29.80
2017-05-16T10:26:15.870Z,29.40
2017-05-16T10:28:44.192Z,29.70
2017-05-16T10:31:13.300Z,29.80
2017-05-16T10:33:41.610Z,29.60
2017-05-16T10:38:37.393Z,29.60
2017-05-16T10:41:06.444Z,30.00
2017-05-16T10:43:34.769Z,30.20
2017-05-16T10:46:03.820Z,30.20
2017-05-16T10:48:32.169Z,30.30
2017-05-16T10:51:00.468Z,30.00
2017-05-16T10:53:28.762Z,30.10
2017-05-16T10:55:57.095Z,30.10
2017-05-16T10:58:25.398Z,30.20
2017-05-16T11:00:53.730Z,30.00
2017-05-16T11:03:22.771Z,29.40
2017-05-16T11:05:51.103Z,29.10
2017-05-16T11:08:20.144Z,29.00
2017-05-16T11:10:48.440Z,29.30
2017-05-16T11:13:16.780Z,29.50
2017-05-16T11:15:45.815Z,29.90
2017-05-16T11:18:14.169Z,30.50
2017-05-16T11:20:42.468Z,30.50
2017-05-16T11:23:10.763Z,29.80
2017-05-16T11:25:39.827Z,29.40
2017-05-16T11:28:08.131Z,29.80
2017-05-16T11:30:37.219Z,30.00
2017-05-16T11:33:05.519Z,30.00
2017-05-16T11:35:33.824Z,30.00
2017-05-16T11:38:02.147Z,29.70
2017-05-16T11:40:30.457Z,28.90
2017-05-16T11:42:58.774Z,28.90
2017-05-16T11:45:27.079Z,29.10
2017-05-16T11:47:55.385Z,29.30
2017-05-16T11:50:23.714Z,28.90
2017-05-16T11:52:52.015Z,28.70
2017-05-16T11:55:20.337Z,28.70
2017-05-16T11:57:48.637Z,29.00
2017-05-16T12:00:17.683Z,29.50
2017-05-16T12:02:46.006Z,29.80
2017-05-16T12:05:15.042Z,29.40
2017-05-16T12:07:43.384Z,28.80
2017-05-16T12:10:12.435Z,28.80
2017-05-16T12:12:40.735Z,29.00
2017-05-16T12:15:09.070Z,29.10
2017-05-16T12:17:37.376Z,29.30
2017-05-16T12:20:05.726Z,29.10
2017-05-16T12:22:34.033Z,29.30
2017-05-16T12:25:02.347Z,29.50
2017-05-16T12:27:31.415Z,29.70
2017-05-16T12:29:59.710Z,29.60
2017-05-16T12:32:28.794Z,29.60
2017-05-16T12:34:57.095Z,29.50
2017-05-16T12:37:25.398Z,29.70
2017-05-16T12:39:54.458Z,29.30
2017-05-16T12:42:22.772Z,29.00
2017-05-16T12:44:51.816Z,28.90
2017-05-16T12:47:20.151Z,29.10
2017-05-16T12:49:49.200Z,29.10
2017-05-16T12:52:17.532Z,29.30
2017-05-16T12:54:45.835Z,29.50
2017-05-16T12:57:14.144Z,29.30
2017-05-16T12:59:42.463Z,28.80
2017-05-16T13:02:11.501Z,28.70
2017-05-16T13:04:39.835Z,28.70
2017-05-16T13:07:08.867Z,28.50
2017-05-16T13:09:37.159Z,28.20
2017-05-16T13:12:05.483Z,28.10
2017-05-16T13:14:34.523Z,28.10
2017-05-16T13:17:02.858Z,28.20
2017-05-16T13:19:31.891Z,28.30
2017-05-16T13:22:00.184Z,28.40
2017-05-16T13:24:28.507Z,28.50
2017-05-16T13:26:57.571Z,28.50
2017-05-16T13:29:25.921Z,28.40
2017-05-16T13:31:54.228Z,28.50
2017-05-16T13:34:22.535Z,28.40
2017-05-16T13:36:50.871Z,27.80
2017-05-16T13:39:19.180Z,27.40
2017-05-16T13:41:47.489Z,27.40
2017-05-16T13:44:16.571Z,27.30
2017-05-16T13:46:44.872Z,27.20
2017-05-16T13:49:13.184Z,27.30
2017-05-16T13:51:41.551Z,27.70
2017-05-16T13:54:09.855Z,28.10
2017-05-16T13:56:38.164Z,27.70
2017-05-16T13:59:07.223Z,27.40
2017-05-16T14:01:35.551Z,27.50
2017-05-16T14:04:04.620Z,27.70
2017-05-16T14:06:32.935Z,27.80
2017-05-16T14:09:01.259Z,27.80
2017-05-16T14:11:29.584Z,27.60
2017-05-16T14:13:57.883Z,27.50
2017-05-16T14:16:26.196Z,27.40
2017-05-16T14:18:54.492Z,27.20
2017-05-16T14:21:23.575Z,26.90
2017-05-16T14:23:51.892Z,26.50
2017-05-16T14:26:20.191Z,26.30
2017-05-16T14:28:48.527Z,26.30
2017-05-16T14:31:17.571Z,26.30
2017-05-16T14:33:45.868Z,26.40
2017-05-16T14:36:14.182Z,26.60
2017-05-16T14:38:43.226Z,26.90
2017-05-16T14:41:11.564Z,27.30
2017-05-16T14:43:39.867Z,27.10
2017-05-16T14:46:08.174Z,26.90
2017-05-16T14:48:36.508Z,26.90
2017-05-16T14:51:04.807Z,27.00
2017-05-16T14:53:33.903Z,27.00
2017-05-16T14:56:02.209Z,27.00
2017-05-16T14:58:31.259Z,26.80
2017-05-16T15:00:59.594Z,26.60
2017-05-16T15:03:28.643Z,26.20
2017-05-16T15:05:57.019Z,26.10
2017-05-16T15:08:25.330Z,26.10
2017-05-16T15:10:53.639Z,26.20
2017-05-16T15:13:21.963Z,26.40
2017-05-16T15:15:50.264Z,26.70
2017-05-16T15:18:18.614Z,26.60
2017-05-16T15:20:46.918Z,26.50
2017-05-16T15:23:15.245Z,26.50
2017-05-16T15:25:43.572Z,26.50
2017-05-16T15:28:11.886Z,26.30
2017-05-16T15:30:40.223Z,26.30
2017-05-16T15:33:08.531Z,26.40
2017-05-16T15:35:36.831Z,26.40
2017-05-16T15:38:05.155Z,26.20
2017-05-16T15:40:33.453Z,26.00
2017-05-16T15:43:02.555Z,25.80
2017-05-16T15:45:30.845Z,25.80
2017-05-16T15:47:59.138Z,25.90
2017-05-16T15:50:27.451Z,25.90
2017-05-16T15:52:55.744Z,26.00
2017-05-16T15:55:24.064Z,26.00
2017-05-16T15:57:52.360Z,25.80
2017-05-16T16:00:20.654Z,25.60
2017-05-16T16:02:48.967Z,25.40
2017-05-16T16:05:18.344Z,25.30
2017-05-16T16:07:47.230Z,25.10
2017-05-16T16:10:15.527Z,25.10
2017-05-16T16:12:43.868Z,25.00
2017-05-16T16:15:12.163Z,24.90
2017-05-16T16:17:40.478Z,24.70
2017-05-16T16:20:08.798Z,24.60
2017-05-16T16:22:37.111Z,24.60
2017-05-16T16:25:05.449Z,24.60
2017-05-16T16:27:34.513Z,24.70
2017-05-16T16:30:02.819Z,24.60
2017-05-16T16:32:31.880Z,24.50
2017-05-16T16:35:00.176Z,24.50
2017-05-16T16:37:28.509Z,24.40
2017-05-16T16:39:56.803Z,24.40
2017-05-16T16:42:25.101Z,24.30
2017-05-16T16:44:53.425Z,24.20
2017-05-16T16:47:21.727Z,24.10
2017-05-16T16:49:50.070Z,24.00
2017-05-16T16:52:18.374Z,24.00
2017-05-16T16:54:46.678Z,24.00
2017-05-16T16:57:14.999Z,24.00
2017-05-16T16:59:44.074Z,23.90
2017-05-16T17:02:12.416Z,23.80
2017-05-16T17:04:40.731Z,23.80
2017-05-16T17:07:09.031Z,23.70
2017-05-16T17:09:38.100Z,23.60
2017-05-16T17:12:06.403Z,23.60
2017-05-16T17:14:34.739Z,23.50
2017-05-16T17:17:03.776Z,23.40
2017-05-16T17:19:32.078Z,23.30
2017-05-16T17:22:00.396Z,23.30
2017-05-16T17:24:29.435Z,23.10
2017-05-16T17:26:57.761Z,23.10
2017-05-16T17:29:26.808Z,23.00
2017-05-16T17:31:55.098Z,23.00
2017-05-16T17:34:23.420Z,23.00
2017-05-16T17:36:52.459Z,22.90
2017-05-16T17:39:20.792Z,23.00
2017-05-16T17:41:49.106Z,23.00
2017-05-16T17:44:17.399Z,23.10
2017-05-16T17:46:45.730Z,23.10
2017-05-16T17:49:14.039Z,23.10
2017-05-16T17:51:42.359Z,23.00
2017-05-16T17:54:11.394Z,23.00
2017-05-16T17:56:39.704Z,22.90
2017-05-16T17:59:08.023Z,22.70
2017-05-16T18:01:36.319Z,22.70
2017-05-16T18:04:04.716Z,22.50
2017-05-16T18:06:33.021Z,22.50
2017-05-16T18:09:01.323Z,22.40
2017-05-16T18:11:30.385Z,22.30
2017-05-16T18:13:58.684Z,22.20
2017-05-16T18:16:27.764Z,22.00
2017-05-16T18:18:56.067Z,21.90
2017-05-16T18:21:25.114Z,21.80
2017-05-16T18:23:53.443Z,21.70
2017-05-16T18:26:21.743Z,21.60
2017-05-16T18:28:50.080Z,21.40
2017-05-16T18:31:19.135Z,21.30
2017-05-16T18:33:47.441Z,21.20
2017-05-16T18:36:15.759Z,21.10
2017-05-16T18:38:44.056Z,21.00
2017-05-16T18:41:12.376Z,20.70
2017-05-16T18:43:40.672Z,20.30
2017-05-16T18:46:09.756Z,20.00
2017-05-16T18:48:38.055Z,19.80
2017-05-16T18:51:06.360Z,19.60
2017-05-16T18:53:34.692Z,19.50
2017-05-16T18:56:02.993Z,19.40
2017-05-16T18:58:31.327Z,19.30
2017-05-16T19:00:59.637Z,19.30
2017-05-16T19:03:27.936Z,19.20
2017-05-16T19:05:56.265Z,19.10
2017-05-16T19:08:25.309Z,19.00
2017-05-16T19:10:53.635Z,18.80
2017-05-16T19:13:21.931Z,18.70
2017-05-16T19:15:50.977Z,18.40
2017-05-16T19:18:19.293Z,18.40
2017-05-16T19:20:48.340Z,18.20
2017-05-16T19:23:16.679Z,18.20
2017-05-16T19:25:44.975Z,18.20
2017-05-16T19:28:13.266Z,18.20
2017-05-16T19:30:41.579Z,18.10
2017-05-16T19:33:09.871Z,18.00
2017-05-16T19:35:38.952Z,17.80
2017-05-16T19:38:07.263Z,17.70
2017-05-16T19:40:36.299Z,17.50
2017-05-16T19:43:04.607Z,17.50
2017-05-16T19:45:32.914Z,17.40
2017-05-16T19:48:01.242Z,17.40
2017-05-16T19:50:29.548Z,17.40
2017-05-16T19:52:57.858Z,17.40
2017-05-16T19:55:26.919Z,17.20
2017-05-16T19:57:55.211Z,17.20
2017-05-16T20:00:23.547Z,17.00
2017-05-16T20:02:51.848Z,17.00
2017-05-16T20:05:20.147Z,16.90
2017-05-16T20:07:48.469Z,16.90
2017-05-16T20:10:16.763Z,16.90
2017-05-16T20:12:45.097Z,16.80
2017-05-16T20:15:14.131Z,16.80
2017-05-16T20:17:42.453Z,16.80
2017-05-16T20:20:10.767Z,16.80
2017-05-16T20:22:39.059Z,16.80
2017-05-16T20:25:07.375Z,16.80
2017-05-16T20:27:35.666Z,16.60
2017-05-16T20:30:05.100Z,16.40
2017-05-16T20:32:33.453Z,16.30
2017-05-16T20:35:02.487Z,16.20
2017-05-16T20:37:30.909Z,16.20
2017-05-16T20:40:00.510Z,16.10
2017-05-16T20:42:29.567Z,16.00
2017-05-16T20:44:57.903Z,16.00
2017-05-16T20:47:26.212Z,16.00
2017-05-16T20:49:54.506Z,16.00
2017-05-16T20:52:22.817Z,15.90
2017-05-16T20:54:51.111Z,15.90
2017-05-16T20:57:19.440Z,15.80
2017-05-16T20:59:47.732Z,15.80
2017-05-16T21:02:16.829Z,15.80
2017-05-16T21:04:45.862Z,15.80
2017-05-16T21:07:14.158Z,15.80
2017-05-16T21:09:42.476Z,15.80
2017-05-16T21:12:11.516Z,15.70
2017-05-16T21:14:39.836Z,15.60
2017-05-16T21:17:08.127Z,15.50
2017-05-16T21:19:37.220Z,15.20
2017-05-16T21:22:06.255Z,15.10
2017-05-16T21:24:34.565Z,15.10
2017-05-16T21:27:02.879Z,15.10
2017-05-16T21:29:31.915Z,15.00
2017-05-16T21:32:00.240Z,15.00
2017-05-16T21:34:28.544Z,15.00
2017-05-16T21:36:56.865Z,15.00
2017-05-16T21:39:25.164Z,15.00
2017-05-16T21:41:53.462Z,15.10
2017-05-16T21:44:22.521Z,15.10
2017-05-16T21:46:50.826Z,15.20
2017-05-16T21:49:19.150Z,15.20
2017-05-16T21:51:47.451Z,15.30
2017-05-16T21:54:15.787Z,15.30
2017-05-16T21:56:44.071Z,15.30
2017-05-16T21:59:12.369Z,15.30
2017-05-16T22:01:41.429Z,15.20
2017-05-16T22:04:09.723Z,15.10
2017-05-16T22:06:38.041Z,15.10
2017-05-16T22:09:06.341Z,15.00
2017-05-16T22:11:34.680Z,15.00
2017-05-16T22:14:03.707Z,15.00
2017-05-16T22:16:32.003Z,15.00
2017-05-16T22:19:00.311Z,15.00
2017-05-16T22:21:28.603Z,15.00
2017-05-16T22:23:57.662Z,14.90
2017-05-16T22:26:25.969Z,14.90
2017-05-16T22:28:55.042Z,14.90
2017-05-16T22:31:23.340Z,14.90
2017-05-16T22:33:52.376Z,15.00
2017-05-16T22:36:20.691Z,15.00
2017-05-16T22:38:48.985Z,15.00
2017-05-16T22:41:17.295Z,14.90
2017-05-16T22:43:45.591Z,14.90
2017-05-16T22:46:13.914Z,14.90
2017-05-16T22:48:42.206Z,14.80
2017-05-16T22:51:11.244Z,14.50
2017-05-16T22:53:39.563Z,14.30
2017-05-16T22:56:07.863Z,14.30
2017-05-16T22:58:36.184Z,14.30
2017-05-16T23:01:04.475Z,14.30
2017-05-16T23:03:32.807Z,14.40
2017-05-16T23:06:01.099Z,14.40
2017-05-16T23:08:29.398Z,14.40
2017-05-16T23:10:57.723Z,14.50
2017-05-16T23:13:26.760Z,14.50
2017-05-16T23:15:55.075Z,14.50
2017-05-16T23:18:23.381Z,14.40
2017-05-16T23:20:52.450Z,14.30
2017-05-16T23:23:20.748Z,14.10
2017-05-16T23:25:49.791Z,13.80
2017-05-16T23:28:18.108Z,13.70
2017-05-16T23:30:46.404Z,13.70
2017-05-16T23:33:14.728Z,13.70
2017-05-16T23:35:43.028Z,13.80
2017-05-16T23:38:11.376Z,13.80
2017-05-16T23:40:39.679Z,13.70
2017-05-16T23:43:07.975Z,13.60
2017-05-16T23:45:36.291Z,13.60
2017-05-16T23:48:05.328Z,13.60
2017-05-16T23:50:33.646Z,13.60
2017-05-16T23:53:01.941Z,13.60
2017-05-16T23:55:31.011Z,13.70
2017-05-16T23:57:59.312Z,13.60
